This is the latest recevied weather packets stored in our database for station/object 9M4GEK-3. If no packets are shown the sender has not sent any weather packets the latest 10 day(s).
| Time | Temp. | Humidity | Pressure | Rain* | Wind** | Luminosity | Snow |
|---|---|---|---|---|---|---|---|
| 1777518660 | 40.56° C | 40% | 1009.6 hPa | - | - | - | - |
| 1777517837 | 38.89° C | 43% | 1009.7 hPa | - | - | - | - |
| 1777517759 | 38.89° C | 43% | 1009.7 hPa | - | - | - | - |
| 1777516859 | 39.44° C | 42% | 1009.6 hPa | - | - | - | - |
| 1777515959 | 38.33° C | 45% | 1009.5 hPa | - | - | - | - |
| 1777515059 | 37.22° C | 47% | 1009.5 hPa | - | - | - | - |
| 1777514158 | 37.78° C | 47% | 1009.4 hPa | - | - | - | - |
| 1777513258 | 38.33° C | 47% | 1009.4 hPa | - | - | - | - |
| 1777512357 | 37.78° C | 49% | 1009.2 hPa | - | - | - | - |
| 1777511456 | 35.56° C | 57% | 1009.2 hPa | - | - | - | - |
| 1777510556 | 33.33° C | 61% | 1008.9 hPa | - | - | - | - |
| 1777508818 | 32.78° C | 64% | 1008.6 hPa | - | - | - | - |
| 1777508756 | 32.78° C | 64% | 1008.6 hPa | - | - | - | - |
| 1777507855 | 29.44° C | 74% | 1008.4 hPa | - | - | - | - |
| 1777500655 | 25.56° C | 82% | 1007.4 hPa | - | - | - | - |
| 1777495254 | 25.56° C | 82% | 1007.7 hPa | - | - | - | - |
| 1777493506 | 26.11° C | 81% | 1007.6 hPa | - | - | - | - |
| 1777493454 | 26.11° C | 81% | 1007.6 hPa | - | - | - | - |
| 1777492590 | 26.11° C | 81% | 1007.9 hPa | - | - | - | - |
| 1777490752 | 26.11° C | 81% | 1008.3 hPa | - | - | - | - |
| 1777489852 | 26.11° C | 81% | 1008.3 hPa | - | - | - | - |
| 1777488984 | 26.11° C | 81% | 1008.4 hPa | - | - | - | - |
| 1777488952 | 26.11° C | 81% | 1008.4 hPa | - | - | - | - |
| 1777485351 | 25.56° C | 81% | 1008.9 hPa | - | - | - | - |
| 1777480042 | 27.78° C | 73% | 1009.2 hPa | - | - | - | - |
* Rain since midnight (hover to see other rain measurements)
** Current wind speed in m/s (hover to see current wind gust speed)